sensor_id;sensor_type;location;lat;lon;timestamp;temperature;humidity
10336;DHT22;5213;53.548;9.930;2024-01-07T00:01:36;-1.10;99.90
10336;DHT22;5213;53.548;9.930;2024-01-07T00:04:02;-1.10;99.90
10336;DHT22;5213;53.548;9.930;2024-01-07T00:06:27;-1.20;99.90
10336;DHT22;5213;53.548;9.930;2024-01-07T00:08:53;-1.30;99.90
10336;DHT22;5213;53.548;9.930;2024-01-07T00:11:18;-1.30;99.90
10336;DHT22;5213;53.548;9.930;2024-01-07T00:13:45;-1.50;99.90
10336;DHT22;5213;53.548;9.930;2024-01-07T00:16:11;-1.40;99.90
10336;DHT22;5213;53.548;9.930;2024-01-07T00:18:36;-1.50;99.90
10336;DHT22;5213;53.548;9.930;2024-01-07T00:21:02;-1.50;99.90
10336;DHT22;5213;53.548;9.930;2024-01-07T00:23:28;-1.40;99.90
10336;DHT22;5213;53.548;9.930;2024-01-07T00:25:53;-1.50;99.90
10336;DHT22;5213;53.548;9.930;2024-01-07T00:28:20;-1.50;99.90
10336;DHT22;5213;53.548;9.930;2024-01-07T00:30:46;-1.60;99.90
10336;DHT22;5213;53.548;9.930;2024-01-07T00:33:11;-1.70;99.90
10336;DHT22;5213;53.548;9.930;2024-01-07T00:35:37;-1.60;99.90
10336;DHT22;5213;53.548;9.930;2024-01-07T00:38:02;-1.70;99.90
10336;DHT22;5213;53.548;9.930;2024-01-07T00:40:28;-1.60;99.90
10336;DHT22;5213;53.548;9.930;2024-01-07T00:42:54;-1.80;99.90
10336;DHT22;5213;53.548;9.930;2024-01-07T00:45:19;-1.80;99.90
10336;DHT22;5213;53.548;9.930;2024-01-07T00:47:45;-1.90;99.90
10336;DHT22;5213;53.548;9.930;2024-01-07T00:50:10;-1.50;99.90
10336;DHT22;5213;53.548;9.930;2024-01-07T00:52:36;-1.80;99.90
10336;DHT22;5213;53.548;9.930;2024-01-07T00:55:08;-1.90;99.90
10336;DHT22;5213;53.548;9.930;2024-01-07T00:57:33;-1.70;99.90
10336;DHT22;5213;53.548;9.930;2024-01-07T01:00:00;-1.90;99.90
10336;DHT22;5213;53.548;9.930;2024-01-07T01:02:26;-1.90;99.90
10336;DHT22;5213;53.548;9.930;2024-01-07T01:04:51;-1.80;99.90
10336;DHT22;5213;53.548;9.930;2024-01-07T01:07:17;-1.90;99.90
10336;DHT22;5213;53.548;9.930;2024-01-07T01:09:42;-1.90;99.90
10336;DHT22;5213;53.548;9.930;2024-01-07T01:12:08;-1.90;99.90
10336;DHT22;5213;53.548;9.930;2024-01-07T01:14:34;-2.10;99.90
10336;DHT22;5213;53.548;9.930;2024-01-07T01:16:59;-1.50;99.90
10336;DHT22;5213;53.548;9.930;2024-01-07T01:19:25;-2.00;99.90
10336;DHT22;5213;53.548;9.930;2024-01-07T01:21:50;-2.10;99.90
10336;DHT22;5213;53.548;9.930;2024-01-07T01:24:16;-2.00;99.90
10336;DHT22;5213;53.548;9.930;2024-01-07T01:26:41;-2.10;99.90
10336;DHT22;5213;53.548;9.930;2024-01-07T01:29:07;-2.00;99.90
10336;DHT22;5213;53.548;9.930;2024-01-07T01:38:51;-2.10;99.90
10336;DHT22;5213;53.548;9.930;2024-01-07T01:41:17;-1.90;99.90
10336;DHT22;5213;53.548;9.930;2024-01-07T01:43:43;-2.10;99.90
10336;DHT22;5213;53.548;9.930;2024-01-07T01:46:09;-2.20;99.90
10336;DHT22;5213;53.548;9.930;2024-01-07T01:48:35;-2.10;99.90
10336;DHT22;5213;53.548;9.930;2024-01-07T01:51:01;-2.20;99.90
10336;DHT22;5213;53.548;9.930;2024-01-07T01:53:28;-2.00;99.90
10336;DHT22;5213;53.548;9.930;2024-01-07T01:55:56;-2.10;99.90
10336;DHT22;5213;53.548;9.930;2024-01-07T01:58:23;-2.10;99.90
10336;DHT22;5213;53.548;9.930;2024-01-07T02:00:49;-2.00;99.90
10336;DHT22;5213;53.548;9.930;2024-01-07T02:03:16;-2.00;99.90
10336;DHT22;5213;53.548;9.930;2024-01-07T02:05:42;-2.00;99.90
10336;DHT22;5213;53.548;9.930;2024-01-07T02:08:08;-1.90;99.90
10336;DHT22;5213;53.548;9.930;2024-01-07T02:10:34;-1.90;99.90
10336;DHT22;5213;53.548;9.930;2024-01-07T02:13:05;-1.80;99.90
10336;DHT22;5213;53.548;9.930;2024-01-07T02:15:31;-1.70;99.90
10336;DHT22;5213;53.548;9.930;2024-01-07T02:17:57;-1.60;99.90
10336;DHT22;5213;53.548;9.930;2024-01-07T02:20:23;-1.90;99.90
10336;DHT22;5213;53.548;9.930;2024-01-07T02:22:49;-1.80;99.90
10336;DHT22;5213;53.548;9.930;2024-01-07T02:25:14;-1.70;99.90
10336;DHT22;5213;53.548;9.930;2024-01-07T02:27:40;-1.70;99.90
10336;DHT22;5213;53.548;9.930;2024-01-07T02:30:06;-1.60;99.90
10336;DHT22;5213;53.548;9.930;2024-01-07T02:32:32;-1.50;99.90
10336;DHT22;5213;53.548;9.930;2024-01-07T02:35:00;-1.60;99.90
10336;DHT22;5213;53.548;9.930;2024-01-07T02:37:25;-1.60;99.90
10336;DHT22;5213;53.548;9.930;2024-01-07T02:39:51;-1.50;99.90
10336;DHT22;5213;53.548;9.930;2024-01-07T02:42:17;-1.50;99.90
10336;DHT22;5213;53.548;9.930;2024-01-07T02:44:42;-1.40;99.90
10336;DHT22;5213;53.548;9.930;2024-01-07T02:47:08;-1.40;99.90
10336;DHT22;5213;53.548;9.930;2024-01-07T02:49:34;-1.30;99.90
10336;DHT22;5213;53.548;9.930;2024-01-07T02:51:59;-1.40;99.90
10336;DHT22;5213;53.548;9.930;2024-01-07T02:54:25;-1.30;99.90
10336;DHT22;5213;53.548;9.930;2024-01-07T02:56:50;-1.30;99.90
10336;DHT22;5213;53.548;9.930;2024-01-07T02:59:16;-1.30;99.90
10336;DHT22;5213;53.548;9.930;2024-01-07T03:01:42;-1.20;99.90
10336;DHT22;5213;53.548;9.930;2024-01-07T03:06:36;-1.20;99.90
10336;DHT22;5213;53.548;9.930;2024-01-07T03:11:28;-1.20;99.90
10336;DHT22;5213;53.548;9.930;2024-01-07T03:13:57;-1.30;99.90
10336;DHT22;5213;53.548;9.930;2024-01-07T03:16:24;-1.20;99.90
10336;DHT22;5213;53.548;9.930;2024-01-07T03:18:50;-1.10;99.90
10336;DHT22;5213;53.548;9.930;2024-01-07T03:21:21;-1.10;99.90
10336;DHT22;5213;53.548;9.930;2024-01-07T03:23:48;-1.10;99.90
10336;DHT22;5213;53.548;9.930;2024-01-07T03:26:15;-1.20;99.90
10336;DHT22;5213;53.548;9.930;2024-01-07T03:28:41;-1.10;99.90
10336;DHT22;5213;53.548;9.930;2024-01-07T03:41:05;-1.00;99.90
10336;DHT22;5213;53.548;9.930;2024-01-07T03:43:31;-0.90;99.90
10336;DHT22;5213;53.548;9.930;2024-01-07T03:45:57;-0.90;99.90
10336;DHT22;5213;53.548;9.930;2024-01-07T03:48:22;-0.90;99.90
10336;DHT22;5213;53.548;9.930;2024-01-07T03:50:48;-0.90;99.90
10336;DHT22;5213;53.548;9.930;2024-01-07T03:53:14;-0.90;99.90
10336;DHT22;5213;53.548;9.930;2024-01-07T03:55:39;-0.70;99.90
10336;DHT22;5213;53.548;9.930;2024-01-07T03:58:05;-0.90;99.90
10336;DHT22;5213;53.548;9.930;2024-01-07T04:00:31;-0.80;99.90
10336;DHT22;5213;53.548;9.930;2024-01-07T04:02:57;-0.80;99.90
10336;DHT22;5213;53.548;9.930;2024-01-07T04:05:22;-0.80;99.90
10336;DHT22;5213;53.548;9.930;2024-01-07T04:07:48;-0.80;99.90
10336;DHT22;5213;53.548;9.930;2024-01-07T04:10:18;-0.70;99.90
10336;DHT22;5213;53.548;9.930;2024-01-07T04:12:44;-0.70;99.90
10336;DHT22;5213;53.548;9.930;2024-01-07T04:15:10;-0.70;99.90
10336;DHT22;5213;53.548;9.930;2024-01-07T04:17:36;-0.50;99.90
10336;DHT22;5213;53.548;9.930;2024-01-07T04:20:02;-0.30;99.90
10336;DHT22;5213;53.548;9.930;2024-01-07T04:22:27;-0.60;99.90
10336;DHT22;5213;53.548;9.930;2024-01-07T04:24:53;-0.60;99.90
10336;DHT22;5213;53.548;9.930;2024-01-07T04:27:18;-0.70;99.90
10336;DHT22;5213;53.548;9.930;2024-01-07T04:29:44;-0.70;99.90
10336;DHT22;5213;53.548;9.930;2024-01-07T04:32:10;-0.60;99.90
10336;DHT22;5213;53.548;9.930;2024-01-07T04:34:35;-0.60;99.90
10336;DHT22;5213;53.548;9.930;2024-01-07T04:37:01;-0.60;99.90
10336;DHT22;5213;53.548;9.930;2024-01-07T04:39:26;-0.60;99.90
10336;DHT22;5213;53.548;9.930;2024-01-07T04:41:52;-0.50;99.90
10336;DHT22;5213;53.548;9.930;2024-01-07T04:44:17;-0.20;99.90
10336;DHT22;5213;53.548;9.930;2024-01-07T04:46:43;-0.50;99.90
10336;DHT22;5213;53.548;9.930;2024-01-07T04:49:09;-0.50;99.90
10336;DHT22;5213;53.548;9.930;2024-01-07T04:51:34;-0.30;99.90
10336;DHT22;5213;53.548;9.930;2024-01-07T04:54:02;-0.40;99.90
10336;DHT22;5213;53.548;9.930;2024-01-07T04:56:27;-0.40;99.90
10336;DHT22;5213;53.548;9.930;2024-01-07T04:58:53;-0.40;99.90
10336;DHT22;5213;53.548;9.930;2024-01-07T05:01:18;-0.40;99.90
10336;DHT22;5213;53.548;9.930;2024-01-07T05:03:44;-0.30;99.90
10336;DHT22;5213;53.548;9.930;2024-01-07T05:06:10;-0.40;99.90
10336;DHT22;5213;53.548;9.930;2024-01-07T05:08:36;-0.40;99.90
10336;DHT22;5213;53.548;9.930;2024-01-07T05:11:03;-0.20;99.90
10336;DHT22;5213;53.548;9.930;2024-01-07T05:13:29;-0.30;99.90
10336;DHT22;5213;53.548;9.930;2024-01-07T05:18:24;-0.20;99.90
10336;DHT22;5213;53.548;9.930;2024-01-07T05:20:50;-0.40;99.90
10336;DHT22;5213;53.548;9.930;2024-01-07T05:23:16;-0.30;99.90
10336;DHT22;5213;53.548;9.930;2024-01-07T05:28:09;-0.20;99.90
10336;DHT22;5213;53.548;9.930;2024-01-07T05:30:34;-0.20;99.90
10336;DHT22;5213;53.548;9.930;2024-01-07T05:33:00;0.20;99.90
10336;DHT22;5213;53.548;9.930;2024-01-07T05:35:25;-0.20;99.90
10336;DHT22;5213;53.548;9.930;2024-01-07T05:37:51;-0.20;99.90
10336;DHT22;5213;53.548;9.930;2024-01-07T05:40:16;-0.20;99.90
10336;DHT22;5213;53.548;9.930;2024-01-07T05:42:42;-0.10;99.90
10336;DHT22;5213;53.548;9.930;2024-01-07T05:45:08;-0.10;99.90
10336;DHT22;5213;53.548;9.930;2024-01-07T05:47:33;0.00;99.90
10336;DHT22;5213;53.548;9.930;2024-01-07T05:52:25;-0.10;99.90
10336;DHT22;5213;53.548;9.930;2024-01-07T05:54:51;0.30;99.90
10336;DHT22;5213;53.548;9.930;2024-01-07T05:57:16;-0.10;99.90
10336;DHT22;5213;53.548;9.930;2024-01-07T05:59:43;-0.10;99.90
10336;DHT22;5213;53.548;9.930;2024-01-07T06:02:09;-0.20;99.90
10336;DHT22;5213;53.548;9.930;2024-01-07T06:04:37;0.10;99.90
10336;DHT22;5213;53.548;9.930;2024-01-07T06:07:03;-0.20;99.90
10336;DHT22;5213;53.548;9.930;2024-01-07T06:09:28;-0.10;99.90
10336;DHT22;5213;53.548;9.930;2024-01-07T06:11:54;-0.10;99.90
10336;DHT22;5213;53.548;9.930;2024-01-07T06:14:31;0.00;99.90
10336;DHT22;5213;53.548;9.930;2024-01-07T06:17:11;-0.20;99.90
10336;DHT22;5213;53.548;9.930;2024-01-07T06:19:36;-0.20;99.90
10336;DHT22;5213;53.548;9.930;2024-01-07T06:22:02;0.10;99.90
10336;DHT22;5213;53.548;9.930;2024-01-07T06:24:28;-0.30;99.90
10336;DHT22;5213;53.548;9.930;2024-01-07T06:26:54;-0.20;99.90
10336;DHT22;5213;53.548;9.930;2024-01-07T06:29:19;-0.10;99.90
10336;DHT22;5213;53.548;9.930;2024-01-07T06:31:45;-0.30;99.90
10336;DHT22;5213;53.548;9.930;2024-01-07T06:34:11;-0.30;99.90
10336;DHT22;5213;53.548;9.930;2024-01-07T06:36:39;0.20;99.90
10336;DHT22;5213;53.548;9.930;2024-01-07T06:39:07;-0.30;99.90
10336;DHT22;5213;53.548;9.930;2024-01-07T06:41:34;-0.30;99.90
10336;DHT22;5213;53.548;9.930;2024-01-07T06:43:59;-0.40;99.90
10336;DHT22;5213;53.548;9.930;2024-01-07T06:46:25;-0.40;99.90
10336;DHT22;5213;53.548;9.930;2024-01-07T06:48:50;-0.40;99.90
10336;DHT22;5213;53.548;9.930;2024-01-07T06:51:16;-0.50;99.90
10336;DHT22;5213;53.548;9.930;2024-01-07T06:53:42;-0.40;99.90
10336;DHT22;5213;53.548;9.930;2024-01-07T06:56:07;-0.40;99.90
10336;DHT22;5213;53.548;9.930;2024-01-07T06:58:33;-0.40;99.90
10336;DHT22;5213;53.548;9.930;2024-01-07T07:00:58;-0.40;99.90
10336;DHT22;5213;53.548;9.930;2024-01-07T07:03:24;-0.30;99.90
10336;DHT22;5213;53.548;9.930;2024-01-07T07:05:50;-0.30;99.90
10336;DHT22;5213;53.548;9.930;2024-01-07T07:08:16;-0.40;99.90
10336;DHT22;5213;53.548;9.930;2024-01-07T07:10:42;-0.40;99.90
10336;DHT22;5213;53.548;9.930;2024-01-07T07:13:07;-0.40;99.90
10336;DHT22;5213;53.548;9.930;2024-01-07T07:15:34;-0.30;99.90
10336;DHT22;5213;53.548;9.930;2024-01-07T07:17:59;-0.30;99.90
10336;DHT22;5213;53.548;9.930;2024-01-07T07:20:25;-0.50;99.90
10336;DHT22;5213;53.548;9.930;2024-01-07T07:22:50;-0.40;99.90
10336;DHT22;5213;53.548;9.930;2024-01-07T07:25:16;-0.40;99.90
10336;DHT22;5213;53.548;9.930;2024-01-07T07:27:42;-0.40;1.00
10336;DHT22;5213;53.548;9.930;2024-01-07T07:30:08;-0.30;1.00
10336;DHT22;5213;53.548;9.930;2024-01-07T07:32:33;-0.10;1.00
10336;DHT22;5213;53.548;9.930;2024-01-07T07:34:59;-0.40;1.00
10336;DHT22;5213;53.548;9.930;2024-01-07T07:37:25;-0.30;1.00
10336;DHT22;5213;53.548;9.930;2024-01-07T07:39:51;-0.70;1.00
10336;DHT22;5213;53.548;9.930;2024-01-07T07:42:16;-0.40;1.00
10336;DHT22;5213;53.548;9.930;2024-01-07T07:44:42;-0.40;1.00
10336;DHT22;5213;53.548;9.930;2024-01-07T07:47:08;-0.40;1.00
10336;DHT22;5213;53.548;9.930;2024-01-07T07:49:37;-0.40;1.00
10336;DHT22;5213;53.548;9.930;2024-01-07T07:52:07;-0.40;1.00
10336;DHT22;5213;53.548;9.930;2024-01-07T07:54:32;-0.20;1.00
10336;DHT22;5213;53.548;9.930;2024-01-07T07:56:58;-0.50;1.00
10336;DHT22;5213;53.548;9.930;2024-01-07T07:59:24;-0.50;1.00
10336;DHT22;5213;53.548;9.930;2024-01-07T08:01:50;-0.30;1.00
10336;DHT22;5213;53.548;9.930;2024-01-07T08:04:15;-0.10;1.00
10336;DHT22;5213;53.548;9.930;2024-01-07T08:06:41;-0.70;1.00
10336;DHT22;5213;53.548;9.930;2024-01-07T08:09:08;-0.70;1.00
10336;DHT22;5213;53.548;9.930;2024-01-07T08:11:34;-0.70;1.00
10336;DHT22;5213;53.548;9.930;2024-01-07T08:13:59;-0.90;1.00
10336;DHT22;5213;53.548;9.930;2024-01-07T08:16:27;-1.00;1.00
10336;DHT22;5213;53.548;9.930;2024-01-07T08:18:52;-0.90;1.00
10336;DHT22;5213;53.548;9.930;2024-01-07T08:21:22;-0.40;1.00
10336;DHT22;5213;53.548;9.930;2024-01-07T08:23:48;-0.60;1.00
10336;DHT22;5213;53.548;9.930;2024-01-07T08:26:18;-1.00;1.00
10336;DHT22;5213;53.548;9.930;2024-01-07T08:28:44;-1.00;1.00
10336;DHT22;5213;53.548;9.930;2024-01-07T08:31:10;-0.80;1.00
10336;DHT22;5213;53.548;9.930;2024-01-07T08:33:36;-1.00;1.00
10336;DHT22;5213;53.548;9.930;2024-01-07T08:36:01;-1.00;1.00
10336;DHT22;5213;53.548;9.930;2024-01-07T08:38:27;-1.10;1.00
10336;DHT22;5213;53.548;9.930;2024-01-07T08:40:52;-1.00;1.00
10336;DHT22;5213;53.548;9.930;2024-01-07T08:43:18;-1.00;1.00
10336;DHT22;5213;53.548;9.930;2024-01-07T08:45:44;-1.10;1.00
10336;DHT22;5213;53.548;9.930;2024-01-07T08:48:09;-1.10;1.00
10336;DHT22;5213;53.548;9.930;2024-01-07T08:50:35;-0.80;1.00
10336;DHT22;5213;53.548;9.930;2024-01-07T08:53:01;-0.80;1.00
10336;DHT22;5213;53.548;9.930;2024-01-07T08:55:27;-1.20;1.00
10336;DHT22;5213;53.548;9.930;2024-01-07T08:57:53;-1.20;1.00
10336;DHT22;5213;53.548;9.930;2024-01-07T09:00:18;-1.10;1.00
10336;DHT22;5213;53.548;9.930;2024-01-07T09:02:44;-1.10;1.00
10336;DHT22;5213;53.548;9.930;2024-01-07T09:05:10;-0.90;1.00
10336;DHT22;5213;53.548;9.930;2024-01-07T09:07:38;-1.20;1.00
10336;DHT22;5213;53.548;9.930;2024-01-07T09:10:03;-1.30;1.00
10336;DHT22;5213;53.548;9.930;2024-01-07T09:12:34;-1.30;1.00
10336;DHT22;5213;53.548;9.930;2024-01-07T09:14:59;-1.30;1.00
10336;DHT22;5213;53.548;9.930;2024-01-07T09:17:25;-1.20;99.90
10336;DHT22;5213;53.548;9.930;2024-01-07T09:19:50;-0.80;99.90
10336;DHT22;5213;53.548;9.930;2024-01-07T09:22:16;-1.10;99.90
10336;DHT22;5213;53.548;9.930;2024-01-07T09:24:42;-1.20;99.90
10336;DHT22;5213;53.548;9.930;2024-01-07T09:27:07;-0.70;99.90
10336;DHT22;5213;53.548;9.930;2024-01-07T09:29:33;-1.10;99.90
10336;DHT22;5213;53.548;9.930;2024-01-07T09:31:58;-1.00;99.90
10336;DHT22;5213;53.548;9.930;2024-01-07T09:34:24;-1.10;99.90
10336;DHT22;5213;53.548;9.930;2024-01-07T09:36:50;-0.50;99.90
10336;DHT22;5213;53.548;9.930;2024-01-07T09:39:15;-1.10;99.90
10336;DHT22;5213;53.548;9.930;2024-01-07T09:41:41;-1.00;99.90
10336;DHT22;5213;53.548;9.930;2024-01-07T09:44:08;-1.00;99.90
10336;DHT22;5213;53.548;9.930;2024-01-07T09:46:37;-1.00;99.90
10336;DHT22;5213;53.548;9.930;2024-01-07T09:49:02;-1.00;99.90
10336;DHT22;5213;53.548;9.930;2024-01-07T09:51:29;-1.10;99.90
10336;DHT22;5213;53.548;9.930;2024-01-07T09:54:02;-1.10;99.90
10336;DHT22;5213;53.548;9.930;2024-01-07T09:56:38;-1.20;99.90
10336;DHT22;5213;53.548;9.930;2024-01-07T09:59:06;-1.10;99.90
10336;DHT22;5213;53.548;9.930;2024-01-07T10:01:34;-1.00;99.90
10336;DHT22;5213;53.548;9.930;2024-01-07T10:04:01;-1.00;99.90
10336;DHT22;5213;53.548;9.930;2024-01-07T10:06:26;-1.00;99.90
10336;DHT22;5213;53.548;9.930;2024-01-07T10:08:52;-1.10;99.90
10336;DHT22;5213;53.548;9.930;2024-01-07T10:11:18;-0.90;99.90
10336;DHT22;5213;53.548;9.930;2024-01-07T10:13:46;-1.00;99.90
10336;DHT22;5213;53.548;9.930;2024-01-07T10:16:17;-1.10;99.90
10336;DHT22;5213;53.548;9.930;2024-01-07T10:18:43;-1.00;99.90
10336;DHT22;5213;53.548;9.930;2024-01-07T10:21:09;-1.10;99.90
10336;DHT22;5213;53.548;9.930;2024-01-07T10:23:34;-1.00;99.90
10336;DHT22;5213;53.548;9.930;2024-01-07T10:26:00;-1.10;99.90
10336;DHT22;5213;53.548;9.930;2024-01-07T10:28:28;-1.10;99.90
10336;DHT22;5213;53.548;9.930;2024-01-07T10:30:53;-0.90;99.90
10336;DHT22;5213;53.548;9.930;2024-01-07T10:33:19;-1.10;99.90
10336;DHT22;5213;53.548;9.930;2024-01-07T10:35:52;-1.00;99.90
10336;DHT22;5213;53.548;9.930;2024-01-07T10:38:19;-1.00;99.90
10336;DHT22;5213;53.548;9.930;2024-01-07T10:40:47;-1.00;99.90
10336;DHT22;5213;53.548;9.930;2024-01-07T10:43:15;-1.00;99.90
10336;DHT22;5213;53.548;9.930;2024-01-07T10:45:43;-0.70;99.90
10336;DHT22;5213;53.548;9.930;2024-01-07T10:48:10;-0.80;99.90
10336;DHT22;5213;53.548;9.930;2024-01-07T10:50:38;-0.80;99.90
10336;DHT22;5213;53.548;9.930;2024-01-07T10:53:07;-0.70;99.90
10336;DHT22;5213;53.548;9.930;2024-01-07T10:55:36;-0.70;99.90
10336;DHT22;5213;53.548;9.930;2024-01-07T10:58:04;-0.70;99.90
10336;DHT22;5213;53.548;9.930;2024-01-07T11:00:31;-0.60;99.90
10336;DHT22;5213;53.548;9.930;2024-01-07T11:06:26;-0.70;99.90
10336;DHT22;5213;53.548;9.930;2024-01-07T11:09:02;-0.60;99.90
10336;DHT22;5213;53.548;9.930;2024-01-07T11:11:47;-0.70;99.90
10336;DHT22;5213;53.548;9.930;2024-01-07T11:14:49;-0.30;99.90
10336;DHT22;5213;53.548;9.930;2024-01-07T11:20:05;-0.90;99.90
10336;DHT22;5213;53.548;9.930;2024-01-07T11:22:31;-1.00;99.90
10336;DHT22;5213;53.548;9.930;2024-01-07T11:25:01;-1.10;99.90
10336;DHT22;5213;53.548;9.930;2024-01-07T11:27:31;-1.00;99.90
10336;DHT22;5213;53.548;9.930;2024-01-07T11:30:07;-0.90;99.90
10336;DHT22;5213;53.548;9.930;2024-01-07T11:32:34;-1.00;99.90
10336;DHT22;5213;53.548;9.930;2024-01-07T11:35:00;-1.00;99.90
10336;DHT22;5213;53.548;9.930;2024-01-07T11:37:26;-1.00;99.90
10336;DHT22;5213;53.548;9.930;2024-01-07T11:39:55;-1.00;99.90
10336;DHT22;5213;53.548;9.930;2024-01-07T11:42:22;-1.10;99.90
10336;DHT22;5213;53.548;9.930;2024-01-07T11:44:53;-0.90;99.90
10336;DHT22;5213;53.548;9.930;2024-01-07T11:47:20;-1.00;99.90
10336;DHT22;5213;53.548;9.930;2024-01-07T11:49:46;-0.90;99.90
10336;DHT22;5213;53.548;9.930;2024-01-07T11:52:12;-0.80;99.90
10336;DHT22;5213;53.548;9.930;2024-01-07T11:54:39;-0.70;99.90
10336;DHT22;5213;53.548;9.930;2024-01-07T11:57:06;-0.80;99.90
10336;DHT22;5213;53.548;9.930;2024-01-07T11:59:33;-1.00;99.90
10336;DHT22;5213;53.548;9.930;2024-01-07T12:02:00;-0.90;99.90
10336;DHT22;5213;53.548;9.930;2024-01-07T12:04:27;-0.80;99.90
10336;DHT22;5213;53.548;9.930;2024-01-07T12:06:53;-0.80;99.90
10336;DHT22;5213;53.548;9.930;2024-01-07T12:09:19;-0.80;99.90
10336;DHT22;5213;53.548;9.930;2024-01-07T12:11:45;-0.80;99.90
10336;DHT22;5213;53.548;9.930;2024-01-07T12:14:11;-0.70;99.90
10336;DHT22;5213;53.548;9.930;2024-01-07T12:16:37;-0.70;99.90
10336;DHT22;5213;53.548;9.930;2024-01-07T12:19:03;-0.70;99.90
10336;DHT22;5213;53.548;9.930;2024-01-07T12:21:28;-0.40;99.90
10336;DHT22;5213;53.548;9.930;2024-01-07T12:23:55;-0.70;99.90
10336;DHT22;5213;53.548;9.930;2024-01-07T12:26:26;-0.60;99.90
10336;DHT22;5213;53.548;9.930;2024-01-07T12:28:53;-0.80;99.90
10336;DHT22;5213;53.548;9.930;2024-01-07T12:31:23;-0.50;99.90
10336;DHT22;5213;53.548;9.930;2024-01-07T12:33:49;-0.80;99.90
10336;DHT22;5213;53.548;9.930;2024-01-07T12:36:14;-0.50;99.90
10336;DHT22;5213;53.548;9.930;2024-01-07T12:38:41;-0.90;99.90
10336;DHT22;5213;53.548;9.930;2024-01-07T12:41:07;-0.80;99.90
10336;DHT22;5213;53.548;9.930;2024-01-07T12:43:33;-0.70;99.90
10336;DHT22;5213;53.548;9.930;2024-01-07T12:45:59;-0.70;99.90
10336;DHT22;5213;53.548;9.930;2024-01-07T12:48:30;-0.70;99.90
10336;DHT22;5213;53.548;9.930;2024-01-07T12:50:56;-0.80;99.90
10336;DHT22;5213;53.548;9.930;2024-01-07T12:53:22;-0.70;99.90
10336;DHT22;5213;53.548;9.930;2024-01-07T12:55:47;-0.80;99.90
10336;DHT22;5213;53.548;9.930;2024-01-07T12:58:13;-0.70;99.90
10336;DHT22;5213;53.548;9.930;2024-01-07T13:00:39;-0.70;99.90
10336;DHT22;5213;53.548;9.930;2024-01-07T13:03:06;-0.80;99.90
10336;DHT22;5213;53.548;9.930;2024-01-07T13:05:33;-0.70;99.90
10336;DHT22;5213;53.548;9.930;2024-01-07T13:07:59;-0.80;99.90
10336;DHT22;5213;53.548;9.930;2024-01-07T13:10:25;-0.90;99.90
10336;DHT22;5213;53.548;9.930;2024-01-07T13:12:53;-1.00;99.90
10336;DHT22;5213;53.548;9.930;2024-01-07T13:15:18;-1.20;99.90
10336;DHT22;5213;53.548;9.930;2024-01-07T13:17:44;-1.40;99.90
10336;DHT22;5213;53.548;9.930;2024-01-07T13:20:10;-1.30;99.90
10336;DHT22;5213;53.548;9.930;2024-01-07T13:22:37;-1.40;99.90
10336;DHT22;5213;53.548;9.930;2024-01-07T13:25:05;-1.20;99.90
10336;DHT22;5213;53.548;9.930;2024-01-07T13:27:31;-1.30;99.90
10336;DHT22;5213;53.548;9.930;2024-01-07T13:29:56;-1.30;99.90
10336;DHT22;5213;53.548;9.930;2024-01-07T13:32:22;-1.30;99.90
10336;DHT22;5213;53.548;9.930;2024-01-07T13:34:48;-1.30;99.90
10336;DHT22;5213;53.548;9.930;2024-01-07T13:37:13;-1.40;99.90
10336;DHT22;5213;53.548;9.930;2024-01-07T13:39:39;-1.40;99.90
10336;DHT22;5213;53.548;9.930;2024-01-07T13:42:05;-1.40;99.90
10336;DHT22;5213;53.548;9.930;2024-01-07T13:44:31;-1.40;99.90
10336;DHT22;5213;53.548;9.930;2024-01-07T13:46:56;-1.40;99.90
10336;DHT22;5213;53.548;9.930;2024-01-07T13:49:22;-1.50;99.90
10336;DHT22;5213;53.548;9.930;2024-01-07T13:51:48;-1.20;99.90
10336;DHT22;5213;53.548;9.930;2024-01-07T13:54:13;-1.70;99.90
10336;DHT22;5213;53.548;9.930;2024-01-07T13:59:12;-1.70;99.90
10336;DHT22;5213;53.548;9.930;2024-01-07T14:01:37;-1.70;99.90
10336;DHT22;5213;53.548;9.930;2024-01-07T14:04:04;-1.70;99.90
10336;DHT22;5213;53.548;9.930;2024-01-07T14:06:30;-1.70;99.90
10336;DHT22;5213;53.548;9.930;2024-01-07T14:08:57;-1.90;99.90
10336;DHT22;5213;53.548;9.930;2024-01-07T14:11:23;-2.00;99.90
10336;DHT22;5213;53.548;9.930;2024-01-07T14:13:48;-1.90;99.90
10336;DHT22;5213;53.548;9.930;2024-01-07T14:16:14;-2.10;99.90
10336;DHT22;5213;53.548;9.930;2024-01-07T14:18:40;-2.10;99.90
10336;DHT22;5213;53.548;9.930;2024-01-07T14:21:06;-2.10;99.90
10336;DHT22;5213;53.548;9.930;2024-01-07T14:23:33;-2.10;99.90
10336;DHT22;5213;53.548;9.930;2024-01-07T14:25:59;-2.20;99.90
10336;DHT22;5213;53.548;9.930;2024-01-07T14:28:25;-2.20;99.90
10336;DHT22;5213;53.548;9.930;2024-01-07T14:30:51;-2.20;99.90
10336;DHT22;5213;53.548;9.930;2024-01-07T14:33:17;-2.30;99.90
10336;DHT22;5213;53.548;9.930;2024-01-07T14:35:43;-2.40;99.90
10336;DHT22;5213;53.548;9.930;2024-01-07T14:38:09;-2.40;99.90
10336;DHT22;5213;53.548;9.930;2024-01-07T14:40:35;-2.50;99.90
10336;DHT22;5213;53.548;9.930;2024-01-07T14:43:02;-2.60;99.90
10336;DHT22;5213;53.548;9.930;2024-01-07T14:45:27;-2.50;99.90
10336;DHT22;5213;53.548;9.930;2024-01-07T14:47:54;-2.50;99.90
10336;DHT22;5213;53.548;9.930;2024-01-07T14:50:21;-2.50;99.90
10336;DHT22;5213;53.548;9.930;2024-01-07T14:52:46;-2.70;99.90
10336;DHT22;5213;53.548;9.930;2024-01-07T14:55:13;-2.60;99.90
10336;DHT22;5213;53.548;9.930;2024-01-07T14:57:40;-2.60;99.90
10336;DHT22;5213;53.548;9.930;2024-01-07T15:00:06;-2.70;99.90
10336;DHT22;5213;53.548;9.930;2024-01-07T15:02:33;-2.50;99.90
10336;DHT22;5213;53.548;9.930;2024-01-07T15:05:00;-2.50;99.90
10336;DHT22;5213;53.548;9.930;2024-01-07T15:07:25;-2.70;99.90
10336;DHT22;5213;53.548;9.930;2024-01-07T15:09:51;-2.80;99.90
10336;DHT22;5213;53.548;9.930;2024-01-07T15:12:17;-2.70;99.90
10336;DHT22;5213;53.548;9.930;2024-01-07T15:14:44;-2.70;99.90
10336;DHT22;5213;53.548;9.930;2024-01-07T15:17:10;-2.50;99.90
10336;DHT22;5213;53.548;9.930;2024-01-07T15:19:35;-2.50;99.90
10336;DHT22;5213;53.548;9.930;2024-01-07T15:22:01;-2.40;99.90
10336;DHT22;5213;53.548;9.930;2024-01-07T15:24:28;-2.40;99.90
10336;DHT22;5213;53.548;9.930;2024-01-07T15:26:53;-2.40;99.90
10336;DHT22;5213;53.548;9.930;2024-01-07T15:29:19;-2.40;99.90
10336;DHT22;5213;53.548;9.930;2024-01-07T15:31:46;-2.20;99.90
10336;DHT22;5213;53.548;9.930;2024-01-07T15:34:12;-2.20;99.90
10336;DHT22;5213;53.548;9.930;2024-01-07T15:36:38;-2.30;99.90
10336;DHT22;5213;53.548;9.930;2024-01-07T15:39:04;-2.20;99.90
10336;DHT22;5213;53.548;9.930;2024-01-07T15:41:30;-2.20;99.90
10336;DHT22;5213;53.548;9.930;2024-01-07T15:43:56;-2.00;99.90
10336;DHT22;5213;53.548;9.930;2024-01-07T15:46:22;-1.80;99.90
10336;DHT22;5213;53.548;9.930;2024-01-07T15:48:47;-2.30;99.90
10336;DHT22;5213;53.548;9.930;2024-01-07T15:51:13;-2.20;99.90
10336;DHT22;5213;53.548;9.930;2024-01-07T15:53:39;-2.40;99.90
10336;DHT22;5213;53.548;9.930;2024-01-07T15:56:05;-2.50;99.90
10336;DHT22;5213;53.548;9.930;2024-01-07T15:58:32;-2.60;99.90
10336;DHT22;5213;53.548;9.930;2024-01-07T16:01:00;-2.80;99.90
10336;DHT22;5213;53.548;9.930;2024-01-07T16:03:26;-2.90;99.90
10336;DHT22;5213;53.548;9.930;2024-01-07T16:05:52;-2.60;99.90
10336;DHT22;5213;53.548;9.930;2024-01-07T16:08:19;-3.00;99.90
10336;DHT22;5213;53.548;9.930;2024-01-07T16:10:45;-3.10;99.90
10336;DHT22;5213;53.548;9.930;2024-01-07T16:13:11;-3.20;99.90
10336;DHT22;5213;53.548;9.930;2024-01-07T16:15:37;-3.10;99.90
10336;DHT22;5213;53.548;9.930;2024-01-07T16:18:03;-3.00;99.90
10336;DHT22;5213;53.548;9.930;2024-01-07T16:20:29;-3.00;99.90